createdAt,value
2023-02-03T00:00:37.820Z,2.80
2023-02-03T00:03:08.068Z,2.60
2023-02-03T00:05:39.907Z,2.33
2023-02-03T00:08:11.066Z,2.33
2023-02-03T00:10:40.846Z,1.90
2023-02-03T00:13:09.880Z,2.00
2023-02-03T00:15:38.142Z,1.60
2023-02-03T00:18:09.213Z,1.90
2023-02-03T00:20:37.573Z,1.70
2023-02-03T00:23:11.525Z,1.80
2023-02-03T00:25:41.159Z,1.63
2023-02-03T00:28:09.473Z,2.00
2023-02-03T00:30:40.980Z,1.67
2023-02-03T00:33:09.337Z,2.33
2023-02-03T00:35:40.202Z,1.90
2023-02-03T00:38:10.005Z,1.73
2023-02-03T00:40:38.620Z,1.80
2023-02-03T00:43:06.972Z,1.60
2023-02-03T00:45:35.918Z,1.70
2023-02-03T00:48:04.927Z,1.80
2023-02-03T00:50:33.182Z,1.80
2023-02-03T00:53:01.427Z,1.40
2023-02-03T00:55:31.131Z,1.90
2023-02-03T00:57:59.562Z,1.60
2023-02-03T01:00:28.231Z,1.37
2023-02-03T01:02:57.465Z,1.60
2023-02-03T01:05:25.801Z,1.90
2023-02-03T01:07:54.279Z,1.50
2023-02-03T01:10:22.646Z,1.60
2023-02-03T01:12:53.385Z,1.70
2023-02-03T01:15:21.674Z,1.90
2023-02-03T01:17:49.993Z,1.80
2023-02-03T01:20:21.570Z,1.90
2023-02-03T01:22:50.017Z,1.40
2023-02-03T01:25:21.267Z,1.63
2023-02-03T01:27:49.538Z,1.90
2023-02-03T01:30:20.369Z,1.90
2023-02-03T01:32:48.807Z,1.83
2023-02-03T01:35:17.471Z,1.60
2023-02-03T01:37:45.748Z,1.60
2023-02-03T01:40:14.592Z,1.50
2023-02-03T01:42:42.914Z,1.60
2023-02-03T01:45:13.679Z,1.70
2023-02-03T01:47:49.627Z,1.70
2023-02-03T01:50:20.941Z,1.60
2023-02-03T01:52:54.188Z,1.50
2023-02-03T01:55:27.245Z,1.33
2023-02-03T01:57:59.945Z,1.70
2023-02-03T02:00:28.891Z,1.60
2023-02-03T02:03:02.512Z,1.90
2023-02-03T02:05:35.137Z,2.20
2023-02-03T02:08:04.947Z,1.70
2023-02-03T02:10:35.030Z,1.80
2023-02-03T02:13:05.251Z,1.67
2023-02-03T02:15:44.866Z,1.70
2023-02-03T02:18:29.822Z,2.03
2023-02-03T02:21:46.469Z,1.60
2023-02-03T02:24:48.646Z,1.80
2023-02-03T02:27:48.132Z,1.90
2023-02-03T02:30:41.029Z,2.00
2023-02-03T02:33:26.466Z,1.70
2023-02-03T02:35:59.945Z,1.57
2023-02-03T02:38:44.452Z,1.87
2023-02-03T02:41:19.246Z,1.70
2023-02-03T02:43:52.614Z,1.80
2023-02-03T02:46:28.875Z,1.70
2023-02-03T02:49:02.727Z,1.53
2023-02-03T02:51:32.581Z,1.87
2023-02-03T02:54:06.245Z,2.00
2023-02-03T02:56:37.420Z,1.60
2023-02-03T02:59:07.822Z,1.80
2023-02-03T03:01:36.252Z,1.40
2023-02-03T03:04:08.843Z,2.00
2023-02-03T03:06:43.813Z,1.50
2023-02-03T03:09:16.219Z,1.57
2023-02-03T03:11:49.623Z,1.87
2023-02-03T03:14:21.297Z,2.17
2023-02-03T03:16:54.958Z,1.90
2023-02-03T03:19:27.367Z,2.00
2023-02-03T03:22:00.586Z,2.00
2023-02-03T03:24:33.236Z,1.60
2023-02-03T03:27:07.984Z,1.80
2023-02-03T03:29:41.370Z,1.90
2023-02-03T03:32:10.217Z,1.70
2023-02-03T03:34:40.738Z,1.50
2023-02-03T03:37:16.297Z,1.90
2023-02-03T03:39:53.518Z,1.77
2023-02-03T03:42:31.340Z,1.70
2023-02-03T03:45:05.348Z,1.80
2023-02-03T03:47:37.518Z,2.00
2023-02-03T03:50:11.807Z,1.60
2023-02-03T03:52:41.949Z,1.60
2023-02-03T03:55:12.759Z,1.50
2023-02-03T03:57:44.372Z,1.60
2023-02-03T04:00:17.781Z,1.50
2023-02-03T04:02:52.877Z,1.63
2023-02-03T04:05:24.138Z,1.60
2023-02-03T04:07:52.570Z,1.50
2023-02-03T04:10:29.936Z,1.50
2023-02-03T04:12:58.311Z,1.50
2023-02-03T04:15:26.566Z,2.03
2023-02-03T04:17:57.026Z,2.10
2023-02-03T04:20:27.039Z,2.10
2023-02-03T04:22:55.711Z,2.00
2023-02-03T04:25:24.497Z,1.80
2023-02-03T04:27:52.911Z,2.03
2023-02-03T04:30:21.215Z,1.80
2023-02-03T04:32:50.879Z,1.70
2023-02-03T04:35:20.008Z,1.80
2023-02-03T04:37:50.663Z,1.90
2023-02-03T04:40:22.264Z,1.70
2023-02-03T04:42:50.698Z,1.70
2023-02-03T04:45:21.168Z,1.90
2023-02-03T04:47:54.439Z,2.00
2023-02-03T04:50:23.209Z,1.90
2023-02-03T04:52:52.973Z,1.90
2023-02-03T04:55:21.457Z,1.70
2023-02-03T04:57:49.990Z,1.77
2023-02-03T05:00:20.975Z,2.10
2023-02-03T05:02:49.710Z,2.00
2023-02-03T05:05:21.029Z,1.97
2023-02-03T05:07:52.908Z,2.00
2023-02-03T05:10:23.326Z,1.90
2023-02-03T05:12:52.160Z,1.77
2023-02-03T05:15:20.626Z,1.63
2023-02-03T05:17:49.447Z,1.57
2023-02-03T05:20:17.978Z,1.57
2023-02-03T05:22:46.314Z,1.63
2023-02-03T05:25:14.993Z,1.80
2023-02-03T05:27:44.932Z,1.73
2023-02-03T05:30:13.924Z,1.90
2023-02-03T05:32:42.203Z,1.87
2023-02-03T05:35:10.517Z,1.60
2023-02-03T05:37:38.881Z,1.70
2023-02-03T05:40:26.546Z,1.53
2023-02-03T05:42:56.522Z,1.60
2023-02-03T05:45:24.761Z,1.63
2023-02-03T05:47:55.751Z,1.80
2023-02-03T05:50:24.765Z,1.67
2023-02-03T05:52:54.246Z,1.70
2023-02-03T05:55:22.844Z,1.80
2023-02-03T05:57:51.917Z,1.80
2023-02-03T06:00:25.604Z,1.60
2023-02-03T06:02:58.024Z,1.53
2023-02-03T06:05:27.244Z,1.60
2023-02-03T06:07:55.929Z,1.77
2023-02-03T06:10:25.048Z,1.57
2023-02-03T06:12:53.932Z,1.60
2023-02-03T06:15:23.975Z,1.50
2023-02-03T06:17:52.660Z,2.20
2023-02-03T06:20:21.859Z,2.03
2023-02-03T06:22:50.686Z,2.00
2023-02-03T06:25:19.409Z,2.00
2023-02-03T06:27:47.901Z,2.10
2023-02-03T06:30:16.506Z,1.83
2023-02-03T06:32:46.299Z,2.00
2023-02-03T06:35:14.781Z,2.50
2023-02-03T06:37:43.191Z,2.70
2023-02-03T06:40:13.188Z,2.70
2023-02-03T06:42:41.752Z,2.60
2023-02-03T22:32:35.393Z,3.60
2023-02-03T22:35:03.765Z,4.03
2023-02-03T22:37:33.310Z,4.20
2023-02-03T22:40:01.693Z,4.20
2023-02-03T22:42:30.097Z,4.00
2023-02-03T22:44:58.698Z,4.27
2023-02-03T22:47:27.080Z,4.40
2023-02-03T22:49:56.834Z,5.90
2023-02-03T22:52:25.320Z,5.07
2023-02-03T22:54:53.712Z,5.93
2023-02-03T22:57:22.003Z,4.10
2023-02-03T22:59:50.359Z,4.10
2023-02-03T23:02:19.156Z,3.83
2023-02-03T23:04:47.668Z,3.70
2023-02-03T23:07:18.029Z,3.50
2023-02-03T23:09:48.644Z,3.50
2023-02-03T23:12:19.922Z,3.10
2023-02-03T23:14:50.469Z,2.70
2023-02-03T23:17:21.935Z,2.53
2023-02-03T23:19:50.473Z,4.63
2023-02-03T23:22:21.093Z,5.00
2023-02-03T23:24:49.656Z,5.70
2023-02-03T23:27:18.683Z,5.17
2023-02-03T23:29:47.294Z,4.10
2023-02-03T23:32:15.996Z,3.23
2023-02-03T23:35:02.066Z,4.03
2023-02-03T23:37:31.763Z,2.90
2023-02-03T23:40:00.426Z,2.27
2023-02-03T23:42:28.739Z,2.33
2023-02-03T23:44:57.215Z,2.57
2023-02-03T23:47:25.733Z,2.50
2023-02-03T23:49:54.138Z,2.20
2023-02-03T23:52:22.740Z,2.40
2023-02-03T23:54:52.668Z,2.23
2023-02-03T23:57:21.102Z,2.20
2023-02-03T23:59:49.365Z,2.00
